createdAt,value
2023-04-22T00:04:49.215Z,7.1
2023-04-22T00:10:41.029Z,6.3
2023-04-22T00:16:33.061Z,6.1
2023-04-22T00:22:25.458Z,5.9
2023-04-22T00:28:17.240Z,5.7
2023-04-22T00:34:09.517Z,5.4
2023-04-22T00:40:01.214Z,5.3
2023-04-22T00:45:37.660Z,5.3
2023-04-22T00:51:29.832Z,4.8
2023-04-22T00:57:21.366Z,4.9
2023-04-22T01:02:58.746Z,4.8
2023-04-22T01:08:35.500Z,4.9
2023-04-22T01:14:12.933Z,5.1
2023-04-22T01:20:08.074Z,5
2023-04-22T01:25:59.085Z,5
2023-04-22T01:31:50.906Z,4.8
2023-04-22T01:37:43.334Z,4.8
2023-04-22T01:43:34.796Z,4.8
2023-04-22T01:49:26.762Z,4.9
2023-04-22T01:55:03.248Z,5.1
2023-04-22T02:00:39.157Z,5.4
2023-04-22T02:06:32.093Z,5.7
2023-04-22T02:12:24.654Z,5.4
2023-04-22T02:18:15.729Z,5.6
2023-04-22T02:24:08.212Z,5.6
2023-04-22T02:29:58.995Z,5.4
2023-04-22T02:35:51.036Z,5.4
2023-04-22T02:41:42.865Z,5.2
2023-04-22T02:47:34.139Z,5.1
2023-04-22T02:53:10.033Z,5
2023-04-22T02:59:01.990Z,5
2023-04-22T03:04:58.772Z,5
2023-04-22T03:10:50.196Z,4.8
2023-04-22T03:16:42.479Z,4.8
2023-04-22T03:22:34.865Z,4.9
2023-04-22T03:28:26.001Z,4.7
2023-04-22T03:34:18.301Z,4.8
2023-04-22T03:40:13.552Z,4.8
2023-04-22T03:46:05.736Z,4.8
2023-04-22T03:51:59.645Z,4.5
2023-04-22T03:57:51.785Z,4.1
2023-04-22T04:03:30.930Z,3.9
2023-04-22T04:09:25.295Z,4.2
2023-04-22T04:15:17.052Z,4.5
2023-04-22T04:21:10.137Z,4.7
2023-04-22T04:27:03.621Z,4.8
2023-04-22T04:32:40.052Z,4.9
2023-04-22T04:38:31.954Z,5.2
2023-04-22T04:44:08.697Z,5.6
2023-04-22T04:50:01.916Z,5.8
2023-04-22T04:55:53.233Z,6
2023-04-22T05:01:44.979Z,6.1
2023-04-22T05:07:38.976Z,6.3
2023-04-22T05:13:30.259Z,6.3
2023-04-22T05:19:22.105Z,6.6
2023-04-22T05:25:13.391Z,7.1
2023-04-22T05:30:49.829Z,7.8
2023-04-22T05:36:42.109Z,7.9
2023-04-22T05:42:36.920Z,8.6
2023-04-22T05:48:28.062Z,8.7
2023-04-22T05:54:20.138Z,9.2
2023-04-22T06:00:12.396Z,9.9
2023-04-22T06:06:07.342Z,10.7
2023-04-22T06:11:49.703Z,10.8
2023-04-22T06:17:41.213Z,10.8
2023-04-22T06:23:35.252Z,10.9
2023-04-22T06:29:11.635Z,12.4
2023-04-22T06:35:03.388Z,13.3
2023-04-22T06:40:54.853Z,13.7
2023-04-22T06:46:46.291Z,13.9
2023-04-22T06:52:40.403Z,13
2023-04-22T06:58:32.520Z,14.5
2023-04-22T07:04:10.534Z,14.5
2023-04-22T07:10:02.835Z,15.1
2023-04-22T07:15:38.695Z,15.3
2023-04-22T07:21:31.075Z,14.5
2023-04-22T07:27:22.807Z,14.5
2023-04-22T07:32:58.948Z,15.1
2023-04-22T07:38:50.665Z,14.9
2023-04-22T07:44:42.231Z,14.9
2023-04-22T07:50:35.549Z,16
2023-04-22T08:02:06.698Z,16.9
2023-04-22T08:08:16.993Z,15.8
2023-04-22T08:14:09.358Z,15.3
2023-04-22T08:20:01.247Z,17.4
2023-04-22T08:25:52.298Z,16.6
2023-04-22T08:31:44.779Z,17.6
2023-04-22T08:37:25.598Z,17.9
2023-04-22T08:43:24.491Z,18.9
2023-04-22T08:49:18.888Z,17.2
2023-04-22T08:55:10.794Z,18
2023-04-22T09:00:47.285Z,19.4
2023-04-22T09:12:18.452Z,20.1
2023-04-22T09:18:10.101Z,21.3
2023-04-22T09:24:01.648Z,21.3
2023-04-22T09:29:53.511Z,21.8
2023-04-22T09:35:45.479Z,22.3
2023-04-22T09:41:46.174Z,21.5
2023-04-22T09:47:38.415Z,20
2023-04-22T09:53:29.877Z,18.3
2023-04-22T09:59:20.822Z,18.2
2023-04-22T10:05:12.752Z,19.1
2023-04-22T10:11:04.109Z,19.5
2023-04-22T10:17:05.159Z,20.4
2023-04-22T10:22:41.579Z,21
2023-04-22T10:28:32.149Z,21
2023-04-22T10:34:12.168Z,21.6
2023-04-22T10:40:05.961Z,21.7
2023-04-22T10:45:58.032Z,21.4
2023-04-22T10:51:34.976Z,21.3
2023-04-22T10:57:31.378Z,20.7
2023-04-22T11:03:38.121Z,21.2
2023-04-22T11:08:58.603Z,20.7
2023-04-22T11:14:50.389Z,20.3
2023-04-22T11:20:42.552Z,19.9
2023-04-22T11:26:37.072Z,19.1
2023-04-22T11:32:29.752Z,19.8
2023-04-22T11:38:06.483Z,20.6
2023-04-22T11:44:27.627Z,19.7
2023-04-22T11:50:19.758Z,19.9
2023-04-22T11:56:11.006Z,19.4
2023-04-22T12:01:47.627Z,18.9
2023-04-22T12:07:42.188Z,18.6
2023-04-22T12:13:33.436Z,18.3
2023-04-22T12:19:27.726Z,18.4
2023-04-22T12:25:19.396Z,18.6
2023-04-22T12:31:12.636Z,18.2
2023-04-22T12:37:04.810Z,18.5
2023-04-22T12:42:56.861Z,17.8
2023-04-22T12:48:49.383Z,17.6
2023-04-22T12:54:41.581Z,17.8
2023-04-22T13:00:33.386Z,17.7
2023-04-22T13:06:26.936Z,17.4
2023-04-22T13:12:30.449Z,18
2023-04-22T13:18:37.796Z,17.2
2023-04-22T13:30:09.334Z,18.2
2023-04-22T13:36:01.866Z,18.4
2023-04-22T13:41:53.696Z,18.8
2023-04-22T13:47:46.371Z,18.6
2023-04-22T13:53:38.861Z,18.8
2023-04-22T14:05:08.566Z,19.1
2023-04-22T14:10:45.773Z,18.6
2023-04-22T14:16:23.512Z,19
2023-04-22T14:22:02.286Z,19.6
2023-04-22T14:27:53.508Z,18.6
2023-04-22T14:33:47.001Z,18.4
2023-04-22T14:39:40.610Z,17.6
2023-04-22T14:45:34.644Z,17.8
2023-04-22T14:51:26.619Z,18
2023-04-22T14:57:26.756Z,17.5
2023-04-22T15:03:19.611Z,17.4
2023-04-22T15:09:10.536Z,17.6
2023-04-22T15:15:02.411Z,17.9
2023-04-22T15:20:56.046Z,18.6
2023-04-22T15:26:48.055Z,18.4
2023-04-22T15:32:42.050Z,17.8
2023-04-22T15:38:33.408Z,18.3
2023-04-22T15:44:25.899Z,17.4
2023-04-22T15:55:53.810Z,16.9
2023-04-22T16:02:07.712Z,16.5
2023-04-22T16:08:00.547Z,16.4
2023-04-22T16:13:52.696Z,16.8
2023-04-22T16:19:43.920Z,16.7
2023-04-22T16:25:35.142Z,16.2
2023-04-22T16:31:27.112Z,16
2023-04-22T16:37:02.594Z,15.7
2023-04-22T16:42:38.663Z,15.1
2023-04-22T16:48:14.918Z,14.5
2023-04-22T16:54:06.333Z,14.1
2023-04-22T16:59:57.662Z,13.9
2023-04-22T17:05:52.505Z,13.8
2023-04-22T17:11:44.054Z,13.6
2023-04-22T17:17:35.860Z,13.5
2023-04-22T17:23:27.483Z,13.4
2023-04-22T17:29:18.173Z,13.3
2023-04-22T17:34:54.320Z,13.2
2023-04-22T17:40:47.105Z,12.9
2023-04-22T17:46:51.379Z,12.8
2023-04-22T17:52:42.906Z,12.8
2023-04-22T17:58:34.285Z,12.7
2023-04-22T18:04:27.467Z,12.5
2023-04-22T18:10:18.768Z,12.4
2023-04-22T18:16:11.504Z,12.2
2023-04-22T18:22:15.496Z,12.1
2023-04-22T18:28:07.281Z,11.9
2023-04-22T18:33:44.281Z,11.8
2023-04-22T18:39:34.841Z,11.7
2023-04-22T18:45:10.795Z,11.6
2023-04-22T18:51:02.455Z,11.5
2023-04-22T18:56:37.565Z,11.4
2023-04-22T19:02:15.410Z,11.3
2023-04-22T19:08:08.685Z,11.2
2023-04-22T19:14:00.781Z,11.1
2023-04-22T19:19:37.333Z,11.1
2023-04-22T19:25:13.772Z,11.1
2023-04-22T19:30:50.282Z,11.1
2023-04-22T19:36:42.660Z,11.1
2023-04-22T19:42:20.801Z,11.1
2023-04-22T19:47:56.600Z,11.1
2023-04-22T19:53:48.281Z,11
2023-04-22T19:59:39.806Z,10.9
2023-04-22T20:05:33.581Z,10.9
2023-04-22T20:11:25.156Z,10.9
2023-04-22T20:17:16.808Z,10.8
2023-04-22T20:23:09.196Z,10.6
2023-04-22T20:29:01.348Z,10.5
2023-04-22T20:34:53.348Z,10.3
2023-04-22T20:40:44.395Z,10.3
2023-04-22T20:46:39.106Z,10.2
2023-04-22T20:52:30.489Z,10
2023-04-22T20:58:33.756Z,9.7
2023-04-22T21:04:27.442Z,9.6
2023-04-22T21:10:19.369Z,9.5
2023-04-22T21:16:11.923Z,9.4
2023-04-22T21:22:03.928Z,9.4
2023-04-22T21:27:55.733Z,9.3
2023-04-22T21:33:58.988Z,9.3
2023-04-22T21:39:52.993Z,9.3
2023-04-22T21:45:45.110Z,8.8
2023-04-22T21:51:20.555Z,9
2023-04-22T21:57:11.637Z,8.7
2023-04-22T22:02:48.086Z,8.3
2023-04-22T22:08:28.117Z,7.8
2023-04-22T22:14:31.291Z,7.5
2023-04-22T22:20:24.402Z,7.3
2023-04-22T22:26:16.214Z,7.1
2023-04-22T22:32:08.109Z,7
2023-04-22T22:38:00.504Z,6.8
2023-04-22T22:43:52.130Z,6.4
2023-04-22T22:49:45.240Z,6.1
2023-04-22T22:55:36.774Z,6.1
2023-04-22T23:01:28.491Z,5.9
2023-04-22T23:07:22.459Z,5.9
2023-04-22T23:12:58.707Z,5.9
2023-04-22T23:18:49.848Z,5.7
2023-04-22T23:24:41.260Z,5.7
2023-04-22T23:30:32.224Z,5.6
2023-04-22T23:36:23.676Z,5.6
2023-04-22T23:42:15.605Z,5.6
2023-04-22T23:48:07.967Z,5.4
2023-04-22T23:53:44.337Z,5.3
2023-04-22T23:59:35.897Z,4.9
